Time;durP1;ratioP1;P1;durP2;ratioP2;P2;SDS_P1;SDS_P2;PMS_P1;PMS_P2;Temp;Humidity;BMP_temperature;BMP_pressure;BME280_temperature;BME280_humidity;BME280_pressure;Samples;Min_cycle;Max_cycle;Signal;HPM_P1;HPM_P2
2021/04/22 00:02:38;;;;;;;16.30;9.70;;;;;;;;;;6176583;23;20619;-91
2021/04/22 00:05:44;;;;;;;19.37;10.27;;;;;;;;;;6177388;23;20196;-90
2021/04/22 00:08:49;;;;;;;21.03;10.60;;;;;;;;;;6176401;23;20504;-89
2021/04/22 00:11:53;;;;;;;20.63;9.40;;;;;;;;;;6176714;23;20211;-91
2021/04/22 00:14:57;;;;;;;18.00;9.70;;;;;;;;;;6177085;23;20179;-89
2021/04/22 00:18:02;;;;;;;19.73;9.27;;;;;;;;;;6176554;23;20168;-91
2021/04/22 00:21:08;;;;;;;20.00;9.70;;;;;;;;;;6177279;23;20172;-90
2021/04/22 00:24:12;;;;;;;22.27;10.00;;;;;;;;;;6178687;22;20240;-89
2021/04/22 00:27:17;;;;;;;21.37;9.87;;;;;;;;;;6179299;23;20219;-90
2021/04/22 00:30:21;;;;;;;18.57;9.30;;;;;;;;;;6180331;23;20215;-90
2021/04/22 00:33:26;;;;;;;16.07;9.30;;;;;;;;;;6177814;23;20248;-90
2021/04/22 00:36:31;;;;;;;20.00;9.50;;;;;;;;;;6178779;23;20308;-89
2021/04/22 00:39:35;;;;;;;19.20;9.63;;;;;;;;;;6176774;23;20172;-90
2021/04/22 00:42:40;;;;;;;18.57;9.53;;;;;;;;;;6174585;23;20255;-90
2021/04/22 00:45:44;;;;;;;19.97;9.80;;;;;;;;;;6176721;23;20216;-88
2021/04/22 00:48:49;;;;;;;17.47;9.40;;;;;;;;;;6187206;23;20187;-88
2021/04/22 00:51:54;;;;;;;19.33;9.20;;;;;;;;;;6204715;23;20214;-90
2021/04/22 00:54:59;;;;;;;17.77;9.83;;;;;;;;;;6205461;23;20202;-89
2021/04/22 00:58:04;;;;;;;18.17;10.23;;;;;;;;;;6205728;23;20215;-92
2021/04/22 01:01:08;;;;;;;22.30;10.33;;;;;;;;;;6206440;23;20190;-88
2021/04/22 01:04:13;;;;;;;24.80;10.73;;;;;;;;;;6206622;23;20170;-89
2021/04/22 01:07:18;;;;;;;19.93;10.57;;;;;;;;;;6205799;23;20190;-88
2021/04/22 01:10:25;;;;;;;18.77;10.13;;;;;;;;;;6206466;23;20203;-90
2021/04/22 01:13:30;;;;;;;22.60;10.67;;;;;;;;;;6205282;23;20171;-91
2021/04/22 01:16:34;;;;;;;20.37;11.00;;;;;;;;;;6206569;23;20162;-88
2021/04/22 01:19:39;;;;;;;23.27;10.30;;;;;;;;;;6207071;23;20171;-91
2021/04/22 01:22:45;;;;;;;23.10;10.77;;;;;;;;;;6207086;23;20179;-91
2021/04/22 01:25:50;;;;;;;21.40;11.00;;;;;;;;;;6204157;23;20190;-93
2021/04/22 01:28:55;;;;;;;24.40;11.30;;;;;;;;;;6207767;23;20295;-90
2021/04/22 01:32:00;;;;;;;23.57;10.97;;;;;;;;;;6206613;23;20162;-91
2021/04/22 01:35:05;;;;;;;20.37;11.23;;;;;;;;;;6207686;23;20167;-90
2021/04/22 01:38:12;;;;;;;16.40;9.33;;;;;;;;;;6207794;23;20170;-90
2021/04/22 01:41:17;;;;;;;20.17;10.93;;;;;;;;;;6207545;23;20242;-90
2021/04/22 01:44:22;;;;;;;19.40;10.23;;;;;;;;;;6207067;23;20176;-90
2021/04/22 01:47:27;;;;;;;20.90;11.13;;;;;;;;;;6207110;23;20194;-91
2021/04/22 01:50:32;;;;;;;20.20;10.77;;;;;;;;;;6207447;22;20251;-90
2021/04/22 01:53:37;;;;;;;21.07;11.27;;;;;;;;;;6206606;23;20227;-91
2021/04/22 01:56:42;;;;;;;21.73;11.27;;;;;;;;;;6207290;23;20275;-92
2021/04/22 01:59:47;;;;;;;20.33;10.47;;;;;;;;;;6206164;23;20214;-89
2021/04/22 02:02:51;;;;;;;21.03;11.00;;;;;;;;;;6205465;23;20178;-89
2021/04/22 02:05:56;;;;;;;22.60;10.77;;;;;;;;;;6205825;23;20195;-91
2021/04/22 02:09:02;;;;;;;18.80;10.83;;;;;;;;;;6207862;23;20253;-90
2021/04/22 02:12:07;;;;;;;25.10;11.73;;;;;;;;;;6207871;23;20170;-89
2021/04/22 02:15:13;;;;;;;23.03;11.63;;;;;;;;;;6207663;23;20214;-92
2021/04/22 02:18:18;;;;;;;24.80;11.93;;;;;;;;;;6207204;23;20186;-89
2021/04/22 02:21:23;;;;;;;25.20;11.53;;;;;;;;;;6207458;23;20171;-90
2021/04/22 02:24:28;;;;;;;22.97;10.13;;;;;;;;;;6209881;23;20171;-92
2021/04/22 02:27:32;;;;;;;22.37;11.40;;;;;;;;;;6209092;23;20195;-90
2021/04/22 02:30:38;;;;;;;21.53;11.47;;;;;;;;;;6209363;23;20166;-91
2021/04/22 02:33:43;;;;;;;22.57;11.20;;;;;;;;;;6208221;23;20163;-89
2021/04/22 02:36:48;;;;;;;21.27;10.60;;;;;;;;;;6208295;23;20147;-91
2021/04/22 02:39:53;;;;;;;23.53;11.13;;;;;;;;;;6207874;23;20162;-90
2021/04/22 02:42:59;;;;;;;21.63;11.50;;;;;;;;;;6206632;22;20182;-90
2021/04/22 02:46:03;;;;;;;24.97;11.60;;;;;;;;;;6205814;23;20309;-90
2021/04/22 02:49:07;;;;;;;26.33;11.77;;;;;;;;;;6209748;23;20199;-90
2021/04/22 02:52:12;;;;;;;22.33;11.87;;;;;;;;;;6223866;23;20175;-90
2021/04/22 02:55:17;;;;;;;25.83;11.43;;;;;;;;;;6224679;23;20190;-91
2021/04/22 02:58:23;;;;;;;22.67;11.77;;;;;;;;;;6223942;23;20167;-90
2021/04/22 03:01:27;;;;;;;23.03;11.80;;;;;;;;;;6224854;23;20175;-91
2021/04/22 03:04:32;;;;;;;28.80;11.70;;;;;;;;;;6224658;23;20175;-88
2021/04/22 03:07:36;;;;;;;19.53;11.07;;;;;;;;;;6224998;23;20235;-90
2021/04/22 03:10:42;;;;;;;26.17;10.90;;;;;;;;;;6224726;23;20608;-88
2021/04/22 03:13:47;;;;;;;21.17;11.00;;;;;;;;;;6227201;23;20187;-91
2021/04/22 03:16:51;;;;;;;23.30;12.00;;;;;;;;;;6227720;23;20191;-90
2021/04/22 03:19:55;;;;;;;20.07;10.67;;;;;;;;;;6226537;23;20251;-90
2021/04/22 03:22:59;;;;;;;20.23;10.77;;;;;;;;;;6225832;23;20511;-91
2021/04/22 03:26:05;;;;;;;22.30;11.07;;;;;;;;;;6225589;23;20278;-90
2021/04/22 03:29:10;;;;;;;23.60;11.50;;;;;;;;;;6227031;23;20242;-90
2021/04/22 03:32:15;;;;;;;20.53;11.67;;;;;;;;;;6226794;23;20559;-90
2021/04/22 03:35:19;;;;;;;21.03;11.33;;;;;;;;;;6226915;23;20174;-91
2021/04/22 03:38:24;;;;;;;32.20;12.47;;;;;;;;;;6225033;23;20191;-89
2021/04/22 03:41:29;;;;;;;22.23;12.43;;;;;;;;;;6226226;23;20713;-92
2021/04/22 03:44:33;;;;;;;37.97;11.93;;;;;;;;;;6227457;23;20163;-91
2021/04/22 03:47:38;;;;;;;21.03;11.10;;;;;;;;;;6228228;23;20175;-90
2021/04/22 03:50:43;;;;;;;24.00;11.90;;;;;;;;;;6227326;23;20502;-91
2021/04/22 03:53:47;;;;;;;21.13;11.30;;;;;;;;;;6227382;23;20195;-89
2021/04/22 03:56:52;;;;;;;22.67;11.43;;;;;;;;;;6225931;23;20171;-90
2021/04/22 03:59:57;;;;;;;21.87;11.33;;;;;;;;;;6227077;23;20174;-91
2021/04/22 04:03:28;;;;;;;26.57;12.00;;;;;;;;;;6225113;23;20223;-90
2021/04/22 04:06:34;;;;;;;23.63;11.63;;;;;;;;;;6224952;23;20191;-90
2021/04/22 04:09:38;;;;;;;25.13;12.53;;;;;;;;;;6225375;23;20175;-90
2021/04/22 04:12:44;;;;;;;27.67;13.03;;;;;;;;;;6224994;23;20187;-88
2021/04/22 04:15:48;;;;;;;22.00;11.93;;;;;;;;;;6224018;23;20502;-89
2021/04/22 04:18:53;;;;;;;31.67;12.47;;;;;;;;;;6226563;23;20162;-91
2021/04/22 04:21:57;;;;;;;24.57;12.07;;;;;;;;;;6224885;23;20171;-89
2021/04/22 04:25:02;;;;;;;25.43;12.57;;;;;;;;;;6224627;23;20191;-90
2021/04/22 04:28:07;;;;;;;23.27;11.77;;;;;;;;;;6226528;23;20292;-91
2021/04/22 04:31:11;;;;;;;23.63;12.33;;;;;;;;;;6225015;23;20245;-91
2021/04/22 04:34:16;;;;;;;31.13;15.20;;;;;;;;;;6226292;23;20236;-90
2021/04/22 04:37:20;;;;;;;27.03;13.93;;;;;;;;;;6225761;23;20262;-91
2021/04/22 04:40:28;;;;;;;28.33;12.63;;;;;;;;;;6225623;23;20175;-90
2021/04/22 04:43:33;;;;;;;26.27;12.90;;;;;;;;;;6223945;23;20168;-90
2021/04/22 04:46:39;;;;;;;26.40;13.73;;;;;;;;;;6224762;23;20203;-90
2021/04/22 04:49:44;;;;;;;23.20;12.77;;;;;;;;;;6224985;23;20218;-89
2021/04/22 04:52:48;;;;;;;26.80;13.33;;;;;;;;;;6225812;23;20238;-91
2021/04/22 04:55:53;;;;;;;27.17;13.37;;;;;;;;;;6227094;23;20174;-89
2021/04/22 04:58:59;;;;;;;27.37;13.27;;;;;;;;;;6227447;23;20191;-90
2021/04/22 05:02:04;;;;;;;28.47;12.97;;;;;;;;;;6226523;22;20163;-91
2021/04/22 05:05:09;;;;;;;26.20;12.70;;;;;;;;;;6225363;23;20175;-91
2021/04/22 05:08:13;;;;;;;25.83;13.40;;;;;;;;;;6224957;23;20179;-89
2021/04/22 05:11:17;;;;;;;24.00;12.80;;;;;;;;;;6224252;23;20503;-89
2021/04/22 05:14:23;;;;;;;31.07;14.10;;;;;;;;;;6224903;23;20217;-89
2021/04/22 05:17:28;;;;;;;28.80;13.43;;;;;;;;;;6226631;23;20163;-88
2021/04/22 05:20:32;;;;;;;26.77;13.00;;;;;;;;;;6224526;23;20168;-89
2021/04/22 05:23:37;;;;;;;34.40;14.90;;;;;;;;;;6224404;23;20641;-89
2021/04/22 05:26:41;;;;;;;29.00;15.50;;;;;;;;;;6224133;23;20194;-89
2021/04/22 05:29:47;;;;;;;33.37;15.27;;;;;;;;;;6226543;23;20159;-90
2021/04/22 05:32:51;;;;;;;33.00;14.47;;;;;;;;;;6231163;22;20170;-88
2021/04/22 05:35:56;;;;;;;30.63;13.97;;;;;;;;;;6227856;23;20167;-92
2021/04/22 05:39:35;;;;;;;29.83;14.63;;;;;;;;;;6226176;22;20194;-91
2021/04/22 05:42:40;;;;;;;33.03;14.10;;;;;;;;;;6227319;23;20159;-90
2021/04/22 05:45:47;;;;;;;29.77;15.25;;;;;;;;;;6229023;23;20416;-89
2021/04/22 05:48:52;;;;;;;26.33;13.77;;;;;;;;;;6227975;23;20194;-91
2021/04/22 05:51:57;;;;;;;35.80;16.97;;;;;;;;;;6211939;23;20634;-91
2021/04/22 05:55:03;;;;;;;25.50;14.03;;;;;;;;;;6209711;23;20528;-91
2021/04/22 05:58:07;;;;;;;29.90;14.70;;;;;;;;;;6211916;22;20241;-89
2021/04/22 06:01:14;;;;;;;28.80;13.97;;;;;;;;;;6208349;22;20198;-89
2021/04/22 06:04:18;;;;;;;28.07;13.83;;;;;;;;;;6205664;23;20171;-90
2021/04/22 06:07:23;;;;;;;30.67;14.73;;;;;;;;;;6207936;23;20190;-89
2021/04/22 06:10:27;;;;;;;26.13;14.03;;;;;;;;;;6208256;23;20170;-91
2021/04/22 06:13:32;;;;;;;34.67;14.80;;;;;;;;;;6207007;23;20156;-91
2021/04/22 06:16:37;;;;;;;24.40;13.63;;;;;;;;;;6211024;22;20247;-93
2021/04/22 06:19:42;;;;;;;28.93;14.13;;;;;;;;;;6210389;23;20481;-91
2021/04/22 06:22:46;;;;;;;29.33;15.33;;;;;;;;;;6210743;23;20263;-91
2021/04/22 06:25:51;;;;;;;27.43;13.20;;;;;;;;;;6209555;23;20172;-90
2021/04/22 06:28:57;;;;;;;25.37;14.20;;;;;;;;;;6208862;23;20170;-90
2021/04/22 06:32:02;;;;;;;28.43;16.63;;;;;;;;;;6211589;22;20183;-90
2021/04/22 06:35:08;;;;;;;25.57;13.90;;;;;;;;;;6212857;23;20171;-91
2021/04/22 06:38:13;;;;;;;27.37;13.30;;;;;;;;;;6218061;23;20166;-91
2021/04/22 06:41:18;;;;;;;26.10;14.07;;;;;;;;;;6209891;23;20190;-90
2021/04/22 06:44:23;;;;;;;24.80;12.40;;;;;;;;;;6213089;22;20171;-89
2021/04/22 06:47:29;;;;;;;23.83;13.00;;;;;;;;;;6211917;23;20210;-90
2021/04/22 06:50:33;;;;;;;22.52;13.20;;;;;;;;;;6197997;23;20159;-91
2021/04/22 06:53:38;;;;;;;27.83;13.75;;;;;;;;;;6181175;23;20215;-91
2021/04/22 06:56:43;;;;;;;26.95;12.88;;;;;;;;;;6181533;23;20490;-90
2021/04/22 06:59:48;;;;;;;30.30;13.48;;;;;;;;;;6182560;23;20225;-89
2021/04/22 07:02:54;;;;;;;23.77;13.02;;;;;;;;;;6181481;23;20188;-90
2021/04/22 07:05:59;;;;;;;33.95;13.50;;;;;;;;;;6182267;23;20212;-91
2021/04/22 07:09:04;;;;;;;26.60;14.90;;;;;;;;;;6180474;23;20179;-91
2021/04/22 07:12:09;;;;;;;26.25;12.60;;;;;;;;;;6183540;23;20156;-90
2021/04/22 07:15:14;;;;;;;32.83;16.98;;;;;;;;;;6181029;22;20283;-91
2021/04/22 07:18:20;;;;;;;26.55;14.70;;;;;;;;;;6181570;23;20207;-91
2021/04/22 07:21:24;;;;;;;27.20;14.68;;;;;;;;;;6182213;23;20519;-91
2021/04/22 07:27:53;;;;;;;26.27;15.32;;;;;;;;;;6179824;23;20523;-90
2021/04/22 07:30:57;;;;;;;27.58;16.00;;;;;;;;;;6179662;23;20221;-90
2021/04/22 11:52:18;;;;;;;21.35;10.75;;;;;;;;;;6204665;22;20214;-92
2021/04/22 11:55:24;;;;;;;25.08;10.73;;;;;;;;;;6244909;23;20182;-90
2021/04/22 11:58:31;;;;;;;15.00;8.18;;;;;;;;;;6246375;23;20171;-91
2021/04/22 12:01:36;;;;;;;13.00;7.55;;;;;;;;;;6244711;23;20162;-91
2021/04/22 12:04:42;;;;;;;17.25;8.48;;;;;;;;;;6244912;22;20169;-90
2021/04/22 12:07:55;;;;;;;14.65;7.72;;;;;;;;;;6244512;22;20198;-92
2021/04/22 12:11:02;;;;;;;15.35;8.40;;;;;;;;;;6246203;23;20171;-92
2021/04/22 12:14:08;;;;;;;21.02;9.43;;;;;;;;;;6245082;22;20153;-92
2021/04/22 12:17:26;;;;;;;20.90;9.02;;;;;;;;;;6244232;23;20178;-92
2021/04/22 12:23:29;;;;;;;15.52;8.32;;;;;;;;;;6250914;22;20259;-95
2021/04/22 12:26:35;;;;;;;17.98;8.98;;;;;;;;;;6243548;23;20186;-93
2021/04/22 12:29:39;;;;;;;14.43;7.85;;;;;;;;;;6244705;23;20170;-92
2021/04/22 12:32:52;;;;;;;11.27;6.65;;;;;;;;;;6242675;23;20194;-93
2021/04/22 12:35:59;;;;;;;18.23;7.35;;;;;;;;;;6243251;23;20170;-94
2021/04/22 12:39:05;;;;;;;11.18;6.38;;;;;;;;;;6241982;22;20181;-93
2021/04/22 12:42:15;;;;;;;9.68;5.32;;;;;;;;;;6242880;23;20154;-90
2021/04/22 12:45:22;;;;;;;11.10;5.07;;;;;;;;;;6243720;22;20665;-93
2021/04/22 14:25:39;;;;;;;4.53;2.10;;;;;;;;;;6203716;23;20498;-91
2021/04/22 14:28:44;;;;;;;5.70;1.95;;;;;;;;;;6185345;23;20171;-92
2021/04/22 14:31:50;;;;;;;11.70;2.05;;;;;;;;;;6201426;23;20244;-93
2021/04/22 14:34:55;;;;;;;3.90;1.88;;;;;;;;;;6182187;23;20163;-93
2021/04/22 14:38:00;;;;;;;7.50;2.05;;;;;;;;;;6201695;23;20168;-93
2021/04/22 14:41:05;;;;;;;6.85;2.00;;;;;;;;;;6185823;23;20160;-93
2021/04/22 14:44:10;;;;;;;9.00;2.10;;;;;;;;;;6183978;23;20204;-92
2021/04/22 14:47:15;;;;;;;6.63;2.40;;;;;;;;;;6183670;23;20264;-91
2021/04/22 14:50:20;;;;;;;6.30;1.80;;;;;;;;;;6201328;23;20168;-91
2021/04/22 14:53:25;;;;;;;14.55;2.75;;;;;;;;;;6186182;23;20167;-92
2021/04/22 14:56:34;;;;;;;11.82;2.50;;;;;;;;;;6183168;23;20196;-92
2021/04/22 14:59:39;;;;;;;6.95;2.17;;;;;;;;;;6183161;23;20196;-93
2021/04/22 15:02:44;;;;;;;4.75;2.35;;;;;;;;;;6180678;23;20167;-92
2021/04/22 15:05:48;;;;;;;7.63;2.17;;;;;;;;;;6180695;23;20172;-92
2021/04/22 15:08:53;;;;;;;9.15;2.60;;;;;;;;;;6185001;23;20183;-90
2021/04/22 15:12:00;;;;;;;6.50;2.15;;;;;;;;;;6201435;23;20151;-93
2021/04/22 15:15:07;;;;;;;5.78;2.33;;;;;;;;;;6183227;23;20151;-90
2021/04/22 15:18:12;;;;;;;6.57;2.15;;;;;;;;;;6181991;23;20489;-91
2021/04/22 15:21:18;;;;;;;7.03;2.10;;;;;;;;;;6200743;23;20159;-90
2021/04/22 15:24:23;;;;;;;11.63;2.20;;;;;;;;;;6181906;23;20278;-91
2021/04/22 15:27:29;;;;;;;7.57;2.55;;;;;;;;;;6199848;23;20193;-91
2021/04/22 15:30:34;;;;;;;11.00;2.38;;;;;;;;;;6179298;23;20614;-91
2021/04/22 15:33:42;;;;;;;6.22;2.05;;;;;;;;;;6180459;23;20682;-91
2021/04/22 15:36:46;;;;;;;5.88;2.30;;;;;;;;;;6180639;23;20180;-91
2021/04/22 15:39:51;;;;;;;8.93;2.05;;;;;;;;;;6182240;23;20621;-91
2021/04/22 15:42:58;;;;;;;9.43;2.33;;;;;;;;;;6181763;23;20227;-90
2021/04/22 15:46:03;;;;;;;5.75;2.20;;;;;;;;;;6181849;23;20172;-93
2021/04/22 15:49:08;;;;;;;7.55;2.45;;;;;;;;;;6183687;23;20171;-92
2021/04/22 15:52:13;;;;;;;4.38;2.00;;;;;;;;;;6200596;23;20199;-92
2021/04/22 15:55:19;;;;;;;7.38;2.20;;;;;;;;;;6202560;23;20244;-94
2021/04/22 15:58:24;;;;;;;8.38;2.45;;;;;;;;;;6180285;23;20180;-92
2021/04/22 16:01:30;;;;;;;7.20;2.05;;;;;;;;;;6182228;23;20185;-92
2021/04/22 16:04:34;;;;;;;7.63;2.20;;;;;;;;;;6182807;23;20207;-92
2021/04/22 16:07:39;;;;;;;4.20;1.85;;;;;;;;;;6199207;23;20228;-94
2021/04/22 16:10:44;;;;;;;6.00;1.83;;;;;;;;;;6183002;23;20623;-92
2021/04/22 16:13:50;;;;;;;6.65;1.98;;;;;;;;;;6184144;23;20211;-90
2021/04/22 16:16:55;;;;;;;6.28;2.00;;;;;;;;;;6186813;23;20164;-91
2021/04/22 16:19:59;;;;;;;8.10;2.72;;;;;;;;;;6202123;23;20191;-92
2021/04/22 16:23:05;;;;;;;7.53;2.30;;;;;;;;;;6183863;23;20191;-92
2021/04/22 16:26:10;;;;;;;8.40;2.20;;;;;;;;;;6183888;23;20184;-92
2021/04/22 16:29:16;;;;;;;6.55;1.98;;;;;;;;;;6184098;23;20172;-89
2021/04/22 16:32:21;;;;;;;11.40;2.53;;;;;;;;;;6182893;23;20240;-90
2021/04/22 16:35:26;;;;;;;4.15;2.20;;;;;;;;;;6183196;23;20246;-91
2021/04/22 16:38:30;;;;;;;6.03;1.98;;;;;;;;;;6184039;23;20236;-91
2021/04/22 16:41:39;;;;;;;8.77;2.03;;;;;;;;;;6185424;23;20171;-92
2021/04/22 16:44:45;;;;;;;13.07;2.20;;;;;;;;;;6183415;23;20212;-90
2021/04/22 16:47:51;;;;;;;6.18;2.10;;;;;;;;;;6183447;23;20195;-92
2021/04/22 16:50:56;;;;;;;10.82;2.15;;;;;;;;;;6186691;23;20176;-92
2021/04/22 16:54:01;;;;;;;3.30;2.08;;;;;;;;;;6186467;23;20191;-90
2021/04/22 16:57:06;;;;;;;6.68;1.80;;;;;;;;;;6185564;23;20172;-92
2021/04/22 17:00:16;;;;;;;4.70;1.92;;;;;;;;;;6185420;23;20171;-91
2021/04/22 17:03:21;;;;;;;6.78;2.10;;;;;;;;;;6186437;23;20173;-91
2021/04/22 17:06:26;;;;;;;9.65;2.08;;;;;;;;;;6187252;23;20223;-91
2021/04/22 17:09:31;;;;;;;4.80;1.98;;;;;;;;;;6187670;23;20172;-91
2021/04/22 17:12:36;;;;;;;7.75;1.92;;;;;;;;;;6187304;23;20168;-90
2021/04/22 17:15:45;;;;;;;7.20;2.47;;;;;;;;;;6188879;23;20163;-92
2021/04/22 17:18:51;;;;;;;7.00;2.60;;;;;;;;;;6186955;23;20196;-92
2021/04/22 17:21:56;;;;;;;6.45;2.20;;;;;;;;;;6188869;23;20152;-92
2021/04/22 17:25:01;;;;;;;9.68;2.60;;;;;;;;;;6187659;23;20175;-91
2021/04/22 17:43:40;;;;;;;5.35;2.10;;;;;;;;;;6204252;23;20168;-92
2021/04/22 17:46:45;;;;;;;11.48;2.05;;;;;;;;;;6203233;23;20188;-92
2021/04/22 17:49:50;;;;;;;7.40;2.22;;;;;;;;;;6186927;23;20186;-92
2021/04/22 17:52:55;;;;;;;7.88;2.05;;;;;;;;;;6202880;23;20172;-91
2021/04/22 17:56:00;;;;;;;7.18;2.10;;;;;;;;;;6202009;23;20200;-91
2021/04/22 17:59:48;;;;;;;8.20;1.90;;;;;;;;;;6202183;23;20604;-91
2021/04/22 18:02:53;;;;;;;6.25;1.95;;;;;;;;;;6202571;23;20226;-90
2021/04/22 18:05:58;;;;;;;6.82;2.10;;;;;;;;;;6200423;23;20209;-89
2021/04/22 18:09:04;;;;;;;6.80;2.35;;;;;;;;;;6202505;23;20155;-90
2021/04/22 18:12:09;;;;;;;5.20;2.10;;;;;;;;;;6203543;23;20175;-91
2021/04/22 18:15:18;;;;;;;4.85;1.83;;;;;;;;;;6202681;23;20188;-90
2021/04/22 18:18:24;;;;;;;6.78;2.20;;;;;;;;;;6202999;23;20168;-92
2021/04/22 18:21:29;;;;;;;7.65;2.53;;;;;;;;;;6185029;23;20187;-90
2021/04/22 18:24:36;;;;;;;11.82;2.28;;;;;;;;;;6202958;23;20176;-91
2021/04/22 18:27:45;;;;;;;6.47;2.45;;;;;;;;;;6203682;23;20179;-92
2021/04/22 18:35:14;;;;;;;7.72;2.42;;;;;;;;;;6200807;23;20200;-92
2021/04/22 18:38:18;;;;;;;5.78;2.22;;;;;;;;;;6202117;23;20180;-93
2021/04/22 18:41:23;;;;;;;9.27;2.60;;;;;;;;;;6191070;23;20192;-91
2021/04/22 18:44:28;;;;;;;8.18;2.78;;;;;;;;;;6189540;23;20169;-91
2021/04/22 18:47:33;;;;;;;12.77;4.63;;;;;;;;;;6190461;23;20188;-91
2021/04/22 18:50:39;;;;;;;15.32;4.25;;;;;;;;;;6186505;23;20184;-91
2021/04/22 18:53:44;;;;;;;6.47;2.55;;;;;;;;;;6187320;23;20634;-92
2021/04/22 18:56:52;;;;;;;7.13;2.97;;;;;;;;;;6170839;23;20148;-92
2021/04/22 18:59:56;;;;;;;11.98;3.30;;;;;;;;;;6189252;23;20164;-90
2021/04/22 19:03:01;;;;;;;15.82;4.32;;;;;;;;;;6191440;23;20202;-91
2021/04/22 19:06:07;;;;;;;18.55;6.63;;;;;;;;;;6174986;23;20189;-92
2021/04/22 19:09:13;;;;;;;10.15;4.90;;;;;;;;;;6192732;23;20160;-92
2021/04/22 19:12:18;;;;;;;9.10;3.20;;;;;;;;;;6193011;23;20172;-92
2021/04/22 19:15:24;;;;;;;10.93;3.47;;;;;;;;;;6175543;23;20165;-92
2021/04/22 19:18:30;;;;;;;9.95;3.13;;;;;;;;;;6193738;23;20157;-90
2021/04/22 19:21:36;;;;;;;14.55;3.40;;;;;;;;;;6193286;23;20228;-91
2021/04/22 19:24:41;;;;;;;11.35;3.15;;;;;;;;;;6192993;23;20189;-92
2021/04/22 19:27:48;;;;;;;8.68;2.72;;;;;;;;;;6193065;23;20192;-91
2021/04/22 19:30:53;;;;;;;8.68;3.50;;;;;;;;;;6175731;23;20152;-91
2021/04/22 19:33:59;;;;;;;8.60;3.10;;;;;;;;;;6194252;23;20173;-90
2021/04/22 19:37:05;;;;;;;10.15;3.22;;;;;;;;;;6191901;23;20211;-91
2021/04/22 19:40:14;;;;;;;9.40;2.73;;;;;;;;;;6192149;23;20164;-92
2021/04/22 19:43:20;;;;;;;8.20;2.80;;;;;;;;;;6204167;23;20188;-91
2021/04/22 19:46:28;;;;;;;12.33;3.43;;;;;;;;;;6187439;23;20199;-91
2021/04/22 19:49:33;;;;;;;7.03;3.20;;;;;;;;;;6188237;23;20155;-91
2021/04/22 19:52:40;;;;;;;7.13;2.97;;;;;;;;;;6190732;23;20159;-90
2021/04/22 19:55:46;;;;;;;10.93;2.63;;;;;;;;;;6188881;23;20192;-90
2021/04/22 19:58:52;;;;;;;10.43;2.67;;;;;;;;;;6186294;23;20171;-91
2021/04/22 20:01:59;;;;;;;8.00;3.43;;;;;;;;;;6186604;23;20168;-91
2021/04/22 20:05:05;;;;;;;12.23;2.93;;;;;;;;;;6187843;23;20156;-91
2021/04/22 20:08:11;;;;;;;9.17;2.50;;;;;;;;;;6206236;23;20215;-91
2021/04/22 20:11:20;;;;;;;7.33;2.80;;;;;;;;;;6189811;23;20282;-91
2021/04/22 20:14:26;;;;;;;5.87;3.00;;;;;;;;;;6190017;23;20211;-90
2021/04/22 20:17:31;;;;;;;10.47;2.87;;;;;;;;;;6204566;23;20176;-90
2021/04/22 20:20:36;;;;;;;8.37;2.60;;;;;;;;;;6204475;23;20172;-91
2021/04/22 20:23:43;;;;;;;8.07;3.43;;;;;;;;;;6189310;23;20168;-91
2021/04/22 20:26:48;;;;;;;12.07;3.53;;;;;;;;;;6204592;23;20490;-92
2021/04/22 20:29:56;;;;;;;10.00;3.90;;;;;;;;;;6187465;23;20167;-91
2021/04/22 20:33:01;;;;;;;10.90;3.07;;;;;;;;;;6203967;23;20215;-92
2021/04/22 20:36:07;;;;;;;12.13;3.27;;;;;;;;;;6185165;23;20171;-90
2021/04/22 20:39:13;;;;;;;9.57;3.10;;;;;;;;;;6202936;23;20226;-91
2021/04/22 20:42:18;;;;;;;11.50;3.23;;;;;;;;;;6202714;23;20234;-91
2021/04/22 20:45:22;;;;;;;11.17;2.83;;;;;;;;;;6203438;23;20199;-91
2021/04/22 20:48:27;;;;;;;8.30;2.90;;;;;;;;;;6200998;23;20195;-91
2021/04/22 20:51:32;;;;;;;11.57;2.77;;;;;;;;;;6201050;23;20160;-91
2021/04/22 20:54:39;;;;;;;12.23;3.63;;;;;;;;;;6184170;23;20175;-90
2021/04/22 20:57:44;;;;;;;15.33;4.30;;;;;;;;;;6200326;23;20246;-91
2021/04/22 21:00:49;;;;;;;6.77;3.23;;;;;;;;;;6185065;23;20167;-91
2021/04/22 21:03:54;;;;;;;10.90;3.67;;;;;;;;;;6201748;23;20195;-90
2021/04/22 21:06:58;;;;;;;13.63;4.47;;;;;;;;;;6200133;23;20317;-92
2021/04/22 21:10:05;;;;;;;11.87;3.40;;;;;;;;;;6200110;23;20510;-92
2021/04/22 21:13:10;;;;;;;13.30;4.00;;;;;;;;;;6199874;23;20176;-91
2021/04/22 21:16:17;;;;;;;13.23;3.73;;;;;;;;;;6201282;23;20167;-91
2021/04/22 21:19:24;;;;;;;14.53;3.90;;;;;;;;;;6198218;23;20215;-91
2021/04/22 21:22:28;;;;;;;11.13;3.87;;;;;;;;;;6197468;23;20188;-92
2021/04/22 21:25:34;;;;;;;11.80;4.00;;;;;;;;;;6180636;23;20225;-91
2021/04/22 21:28:38;;;;;;;14.03;3.80;;;;;;;;;;6200709;23;20191;-92
2021/04/22 21:31:43;;;;;;;14.77;4.13;;;;;;;;;;6196400;23;20203;-91
2021/04/22 21:34:48;;;;;;;9.53;3.30;;;;;;;;;;6199013;23;20221;-92
2021/04/22 21:37:53;;;;;;;10.30;4.30;;;;;;;;;;6182352;23;20216;-90
2021/04/22 21:40:58;;;;;;;11.87;3.20;;;;;;;;;;6180673;23;20235;-91
2021/04/22 21:44:04;;;;;;;8.83;3.20;;;;;;;;;;6196132;23;20240;-92
2021/04/22 21:47:10;;;;;;;16.40;3.63;;;;;;;;;;6178963;23;20259;-91
2021/04/22 21:50:14;;;;;;;14.20;4.23;;;;;;;;;;6177719;23;20180;-91
2021/04/22 21:53:19;;;;;;;14.40;3.90;;;;;;;;;;6195588;23;20175;-91
2021/04/22 21:56:24;;;;;;;14.40;3.93;;;;;;;;;;6197557;23;20211;-91
2021/04/22 21:59:29;;;;;;;11.93;3.83;;;;;;;;;;6197765;23;20661;-90
2021/04/22 22:02:37;;;;;;;15.30;3.57;;;;;;;;;;6180329;23;20236;-91
2021/04/22 22:05:42;;;;;;;10.43;3.63;;;;;;;;;;6197392;23;20204;-90
2021/04/22 22:08:48;;;;;;;12.67;4.17;;;;;;;;;;6195767;23;20274;-90
2021/04/22 22:11:53;;;;;;;9.70;3.47;;;;;;;;;;6197576;23;20224;-92
2021/04/22 22:14:58;;;;;;;12.77;3.90;;;;;;;;;;6181131;23;20252;-91
2021/04/22 22:18:02;;;;;;;12.73;3.93;;;;;;;;;;6196427;23;20187;-91
2021/04/22 22:21:07;;;;;;;12.97;3.97;;;;;;;;;;6198324;23;20244;-91
2021/04/22 22:24:12;;;;;;;12.67;4.93;;;;;;;;;;6197962;23;20168;-91
2021/04/22 22:27:18;;;;;;;12.27;3.80;;;;;;;;;;6197257;23;20176;-90
2021/04/22 22:30:28;;;;;;;12.00;3.97;;;;;;;;;;6197945;23;20179;-91
2021/04/22 22:33:34;;;;;;;9.70;3.43;;;;;;;;;;6197683;23;20171;-91
2021/04/22 22:36:39;;;;;;;12.33;3.80;;;;;;;;;;6199032;23;20328;-92
2021/04/22 22:39:43;;;;;;;8.53;3.43;;;;;;;;;;6178617;23;20168;-90
2021/04/22 22:42:48;;;;;;;10.43;3.70;;;;;;;;;;6177663;23;20215;-92
2021/04/22 22:45:54;;;;;;;12.20;3.67;;;;;;;;;;6195493;23;20172;-91
2021/04/22 22:48:59;;;;;;;11.87;3.90;;;;;;;;;;6176421;23;20204;-91
2021/04/22 22:52:03;;;;;;;11.43;3.43;;;;;;;;;;6178351;23;20160;-92
2021/04/22 22:55:09;;;;;;;19.00;3.80;;;;;;;;;;6194368;23;20195;-89
2021/04/22 22:58:15;;;;;;;10.80;3.27;;;;;;;;;;6177576;23;20167;-90
2021/04/22 23:01:19;;;;;;;12.47;3.53;;;;;;;;;;6178039;23;20172;-91
2021/04/22 23:04:23;;;;;;;9.03;3.37;;;;;;;;;;6197640;23;20171;-91
2021/04/22 23:07:28;;;;;;;11.23;3.73;;;;;;;;;;6197211;23;20192;-91
2021/04/22 23:10:34;;;;;;;12.10;3.60;;;;;;;;;;6178719;23;20184;-91
2021/04/22 23:13:40;;;;;;;19.43;3.77;;;;;;;;;;6179428;23;20175;-91
2021/04/22 23:16:44;;;;;;;9.40;3.63;;;;;;;;;;6180004;23;20167;-92
2021/04/22 23:19:49;;;;;;;12.20;3.07;;;;;;;;;;6197214;23;20168;-91
2021/04/22 23:22:54;;;;;;;12.47;3.07;;;;;;;;;;6194235;23;20176;-90
2021/04/22 23:25:58;;;;;;;13.33;3.30;;;;;;;;;;6196242;23;20176;-91
2021/04/22 23:29:04;;;;;;;8.67;3.20;;;;;;;;;;6196546;23;20219;-90
2021/04/22 23:32:09;;;;;;;10.93;3.60;;;;;;;;;;6197278;23;20244;-91
2021/04/22 23:35:14;;;;;;;11.00;3.47;;;;;;;;;;6197838;23;20176;-90
2021/04/22 23:38:20;;;;;;;10.57;3.63;;;;;;;;;;6198731;23;20205;-91
2021/04/22 23:41:25;;;;;;;10.00;3.20;;;;;;;;;;6185882;23;20192;-90
2021/04/22 23:44:31;;;;;;;12.37;3.00;;;;;;;;;;6186986;23;20228;-92
2021/04/22 23:47:35;;;;;;;11.47;3.70;;;;;;;;;;6169613;23;20192;-91
2021/04/22 23:50:40;;;;;;;13.10;3.57;;;;;;;;;;6186478;23;20622;-91
2021/04/22 23:53:45;;;;;;;12.90;3.10;;;;;;;;;;6186557;23;20189;-90
2021/04/22 23:56:50;;;;;;;11.47;2.73;;;;;;;;;;6186410;23;20167;-90
2021/04/22 23:59:55;;;;;;;9.47;3.17;;;;;;;;;;6185682;23;20197;-91
